createdAt,value
2023-03-26T00:01:38.758Z,7.40
2023-03-26T00:04:07.685Z,7.40
2023-03-26T00:06:39.571Z,7.30
2023-03-26T00:09:13.507Z,7.20
2023-03-26T00:11:41.079Z,7.20
2023-03-26T00:14:13.980Z,7.10
2023-03-26T00:16:44.393Z,7.10
2023-03-26T00:19:12.806Z,7.00
2023-03-26T00:21:41.535Z,7.00
2023-03-26T00:24:15.453Z,7.00
2023-03-26T00:26:43.473Z,6.90
2023-03-26T00:29:13.825Z,6.80
2023-03-26T00:31:41.336Z,6.80
2023-03-26T00:34:10.518Z,6.80
2023-03-26T00:36:37.845Z,6.60
2023-03-26T00:39:05.760Z,6.60
2023-03-26T00:41:37.198Z,6.60
2023-03-26T00:44:04.666Z,6.60
2023-03-26T00:46:32.422Z,6.50
2023-03-26T00:49:00.651Z,6.60
2023-03-26T00:51:28.784Z,6.60
2023-03-26T00:53:57.056Z,6.60
2023-03-26T00:56:25.178Z,6.70
2023-03-26T00:58:52.232Z,7.00
2023-03-26T01:01:28.727Z,6.90
2023-03-26T01:04:17.654Z,6.90
2023-03-26T01:06:45.368Z,7.00
2023-03-26T01:09:19.001Z,6.90
2023-03-26T01:11:47.056Z,6.70
2023-03-26T01:14:23.579Z,6.70
2023-03-26T01:16:57.068Z,6.60
2023-03-26T01:19:38.343Z,6.60
2023-03-26T01:22:12.095Z,6.50
2023-03-26T01:24:40.061Z,6.50
2023-03-26T01:27:25.917Z,6.50
2023-03-26T01:29:58.162Z,6.40
2023-03-26T01:32:51.109Z,6.40
2023-03-26T01:35:23.977Z,6.40
2023-03-26T01:38:12.987Z,6.30
2023-03-26T01:41:18.061Z,6.30
2023-03-26T01:43:59.250Z,6.40
2023-03-26T01:46:27.498Z,6.40
2023-03-26T01:48:55.576Z,6.40
2023-03-26T01:51:31.168Z,6.40
2023-03-26T01:53:59.600Z,6.40
2023-03-26T01:56:54.757Z,6.40
2023-03-26T01:59:45.745Z,6.40
2023-03-26T02:02:32.310Z,6.40
2023-03-26T02:05:59.720Z,6.50
2023-03-26T02:08:36.000Z,6.50
2023-03-26T02:11:11.897Z,6.60
2023-03-26T02:13:45.451Z,6.60
2023-03-26T02:16:16.999Z,6.70
2023-03-26T02:18:46.470Z,6.60
2023-03-26T02:21:21.513Z,6.60
2023-03-26T02:23:58.013Z,6.60
2023-03-26T02:26:25.689Z,6.60
2023-03-26T02:28:52.765Z,6.50
2023-03-26T02:31:19.882Z,6.50
2023-03-26T02:33:47.791Z,6.50
2023-03-26T02:36:16.206Z,6.50
2023-03-26T02:38:43.455Z,6.50
2023-03-26T02:41:10.507Z,6.40
2023-03-26T02:43:37.558Z,6.50
2023-03-26T02:46:05.153Z,6.40
2023-03-26T02:48:34.746Z,6.40
2023-03-26T02:51:03.064Z,6.30
2023-03-26T02:53:30.563Z,6.20
2023-03-26T02:55:59.127Z,6.10
2023-03-26T02:58:27.370Z,6.10
2023-03-26T03:00:57.519Z,6.10
2023-03-26T03:03:26.618Z,6.10
2023-03-26T03:05:55.290Z,6.10
2023-03-26T03:08:26.586Z,6.20
2023-03-26T03:11:10.416Z,6.20
2023-03-26T03:13:37.617Z,6.20
2023-03-26T03:16:05.228Z,6.20
2023-03-26T03:18:32.382Z,6.20
2023-03-26T03:20:59.572Z,6.30
2023-03-26T03:23:26.679Z,6.30
2023-03-26T03:25:57.515Z,6.30
2023-03-26T03:28:26.728Z,6.30
2023-03-26T03:30:53.926Z,6.30
2023-03-26T03:33:21.475Z,6.30
2023-03-26T03:35:50.463Z,6.30
2023-03-26T03:38:18.317Z,6.40
2023-03-26T03:40:45.846Z,6.30
2023-03-26T03:43:12.949Z,6.30
2023-03-26T03:45:40.043Z,6.40
2023-03-26T03:48:07.195Z,6.30
2023-03-26T03:50:35.815Z,6.30
2023-03-26T03:53:05.764Z,6.30
2023-03-26T03:55:33.002Z,6.30
2023-03-26T03:58:00.340Z,6.30
2023-03-26T04:00:27.514Z,6.30
2023-03-26T04:02:54.824Z,6.20
2023-03-26T04:05:22.312Z,6.20
2023-03-26T04:07:50.362Z,6.20
2023-03-26T04:10:17.727Z,6.20
2023-03-26T04:12:44.914Z,6.20
2023-03-26T04:15:12.034Z,6.20
2023-03-26T04:17:42.865Z,6.20
2023-03-26T04:20:19.711Z,6.20
2023-03-26T04:22:46.756Z,6.20
2023-03-26T04:25:15.584Z,6.10
2023-03-26T04:27:44.180Z,6.10
2023-03-26T04:30:17.291Z,6.10
2023-03-26T04:32:45.513Z,6.10
2023-03-26T04:35:16.724Z,6.10
2023-03-26T04:37:46.126Z,6.10
2023-03-26T04:40:21.997Z,6.10
2023-03-26T04:42:51.413Z,6.10
2023-03-26T04:45:22.823Z,6.00
2023-03-26T04:47:51.592Z,6.00
2023-03-26T04:50:19.056Z,6.00
2023-03-26T04:52:46.315Z,6.00
2023-03-26T04:55:29.796Z,6.00
2023-03-26T04:58:00.225Z,6.00
2023-03-26T05:00:27.841Z,6.00
2023-03-26T05:02:57.851Z,6.00
2023-03-26T05:05:27.072Z,6.00
2023-03-26T05:07:54.588Z,6.10
2023-03-26T05:10:22.749Z,6.00
2023-03-26T05:12:52.796Z,6.00
2023-03-26T05:15:20.365Z,6.00
2023-03-26T05:17:48.601Z,6.10
2023-03-26T05:20:22.009Z,6.10
2023-03-26T05:22:51.289Z,6.10
2023-03-26T05:25:19.354Z,6.20
2023-03-26T05:27:46.720Z,6.10
2023-03-26T05:30:17.754Z,6.10
2023-03-26T05:32:51.092Z,6.20
2023-03-26T05:35:19.224Z,6.20
2023-03-26T05:37:48.024Z,6.20
2023-03-26T05:40:17.249Z,6.20
2023-03-26T05:42:45.560Z,6.20
2023-03-26T05:45:15.618Z,6.20
2023-03-26T05:47:43.368Z,6.30
2023-03-26T05:50:11.747Z,6.20
2023-03-26T05:52:39.303Z,6.20
2023-03-26T05:55:08.235Z,6.30
2023-03-26T05:57:35.708Z,6.30
2023-03-26T06:00:06.259Z,6.30
2023-03-26T06:02:33.837Z,6.30
2023-03-26T06:05:01.346Z,6.40
2023-03-26T06:07:28.863Z,6.40
2023-03-26T06:09:56.415Z,6.40
2023-03-26T06:12:23.510Z,6.40
2023-03-26T06:14:50.796Z,6.50
2023-03-26T06:17:18.061Z,6.50
2023-03-26T06:19:48.014Z,6.50
2023-03-26T06:22:15.653Z,6.50
2023-03-26T06:24:42.768Z,6.60
2023-03-26T06:27:09.955Z,6.50
2023-03-26T06:29:37.018Z,6.60
2023-03-26T06:32:16.276Z,6.60
2023-03-26T06:34:46.746Z,6.60
2023-03-26T06:37:13.806Z,6.60
2023-03-26T06:39:41.099Z,6.60
2023-03-26T06:42:08.770Z,6.60
2023-03-26T06:44:36.030Z,6.70
2023-03-26T06:47:03.109Z,6.80
2023-03-26T06:49:30.441Z,6.80
2023-03-26T06:51:57.880Z,6.80
2023-03-26T06:54:24.945Z,6.80
2023-03-26T06:56:52.078Z,6.80
2023-03-26T06:59:19.625Z,6.90
2023-03-26T07:01:46.910Z,6.90
2023-03-26T07:04:14.057Z,6.90
2023-03-26T07:06:41.160Z,6.80
2023-03-26T07:09:08.470Z,6.90
2023-03-26T07:11:35.722Z,6.90
2023-03-26T07:14:03.923Z,6.90
2023-03-26T07:16:31.278Z,6.90
2023-03-26T07:18:58.488Z,7.00
2023-03-26T07:21:25.989Z,7.10
2023-03-26T07:23:54.836Z,7.10
2023-03-26T07:26:49.548Z,7.10
2023-03-26T07:29:44.340Z,7.00
2023-03-26T07:32:37.731Z,7.00
2023-03-26T07:35:41.945Z,7.10
2023-03-26T07:39:09.187Z,7.10
2023-03-26T07:42:07.143Z,7.10
2023-03-26T07:45:14.734Z,7.20
2023-03-26T07:47:45.052Z,7.20
2023-03-26T07:50:19.089Z,7.20
2023-03-26T07:52:47.000Z,7.30
2023-03-26T07:55:16.729Z,7.30
2023-03-26T07:58:29.887Z,7.30
2023-03-26T08:01:06.366Z,7.30
2023-03-26T08:04:25.857Z,7.40
2023-03-26T08:07:07.599Z,7.50
2023-03-26T08:09:43.652Z,7.60
2023-03-26T08:12:22.993Z,7.60
2023-03-26T08:15:38.054Z,7.60
2023-03-26T08:18:36.782Z,7.60
2023-03-26T08:21:31.785Z,7.60
2023-03-26T08:24:16.331Z,7.50
2023-03-26T08:27:23.698Z,7.60
2023-03-26T08:29:58.134Z,7.50
2023-03-26T08:32:26.879Z,7.50
2023-03-26T08:34:54.012Z,7.40
2023-03-26T08:37:21.697Z,7.30
2023-03-26T08:39:48.805Z,7.30
2023-03-26T08:43:00.514Z,7.10
2023-03-26T08:45:41.186Z,7.10
2023-03-26T08:48:26.061Z,7.00
2023-03-26T08:51:13.151Z,7.00
2023-03-26T08:54:10.950Z,7.00
2023-03-26T08:57:15.919Z,7.00
2023-03-26T09:00:18.380Z,7.10
2023-03-26T09:02:45.448Z,7.10
2023-03-26T09:05:44.471Z,7.10
2023-03-26T09:08:30.335Z,7.10
2023-03-26T09:11:13.897Z,7.20
2023-03-26T09:14:11.439Z,7.20
2023-03-26T09:17:15.932Z,7.30
2023-03-26T09:20:25.220Z,7.40
2023-03-26T09:23:43.340Z,7.30
2023-03-26T09:27:04.274Z,7.20
2023-03-26T09:30:08.869Z,7.30
2023-03-26T09:32:57.139Z,7.30
2023-03-26T09:35:50.782Z,7.30
2023-03-26T09:38:44.238Z,7.50
2023-03-26T09:41:43.660Z,7.80
2023-03-26T09:44:32.957Z,8.00
2023-03-26T09:47:39.504Z,8.20
2023-03-26T09:50:50.196Z,8.50
2023-03-26T09:54:06.352Z,8.60
2023-03-26T09:57:12.640Z,8.60
2023-03-26T09:59:52.786Z,8.80
2023-03-26T10:02:45.785Z,8.90
2023-03-26T10:05:41.367Z,9.20
2023-03-26T10:08:28.835Z,9.30
2023-03-26T10:11:03.070Z,9.20
2023-03-26T10:13:54.312Z,9.30
2023-03-26T10:16:38.443Z,9.30
2023-03-26T10:19:14.698Z,9.30
2023-03-26T10:21:48.292Z,9.20
2023-03-26T10:24:46.947Z,9.10
2023-03-26T10:27:36.062Z,9.00
2023-03-26T10:30:50.341Z,9.20
2023-03-26T10:33:54.316Z,9.40
2023-03-26T10:36:31.471Z,9.70
2023-03-26T10:39:43.680Z,10.00
2023-03-26T10:42:55.706Z,10.00
2023-03-26T10:46:09.973Z,10.10
2023-03-26T10:49:08.866Z,10.20
2023-03-26T10:51:58.754Z,10.30
2023-03-26T10:54:54.452Z,10.40
2023-03-26T10:58:03.299Z,10.90
2023-03-26T11:00:31.294Z,11.10
2023-03-26T11:03:14.832Z,10.80
2023-03-26T11:06:18.164Z,10.40
2023-03-26T11:08:58.357Z,10.10
2023-03-26T11:11:46.391Z,9.80
2023-03-26T11:14:35.225Z,9.30
2023-03-26T11:17:40.627Z,9.10
2023-03-26T11:20:34.142Z,9.00
2023-03-26T11:23:15.496Z,8.90
2023-03-26T11:26:15.984Z,8.90
2023-03-26T11:29:32.312Z,9.00
2023-03-26T11:32:22.252Z,9.00
2023-03-26T11:35:02.536Z,8.90
2023-03-26T11:37:44.041Z,9.00
2023-03-26T11:40:31.783Z,9.20
2023-03-26T11:43:04.947Z,9.60
2023-03-26T11:45:41.741Z,10.10
2023-03-26T11:48:17.954Z,10.40
2023-03-26T11:50:57.624Z,10.70
2023-03-26T11:53:35.671Z,10.70
2023-03-26T11:56:16.010Z,10.50
2023-03-26T11:59:05.960Z,10.50
2023-03-26T12:01:52.790Z,10.40
2023-03-26T12:04:50.615Z,10.20
2023-03-26T12:07:33.646Z,9.90
2023-03-26T12:10:18.154Z,9.70
2023-03-26T12:12:48.078Z,9.50
2023-03-26T12:15:19.245Z,9.20
2023-03-26T12:17:53.688Z,9.10
2023-03-26T12:20:31.045Z,9.20
2023-03-26T12:23:01.221Z,9.50
2023-03-26T12:25:38.659Z,9.50
2023-03-26T12:28:18.672Z,9.30
2023-03-26T12:31:01.255Z,9.50
2023-03-26T12:33:34.852Z,9.90
2023-03-26T12:36:29.214Z,10.70
2023-03-26T12:39:16.964Z,11.50
2023-03-26T12:44:43.592Z,11.80
2023-03-26T12:45:00.305Z,11.70
2023-03-26T12:48:01.145Z,11.40
2023-03-26T12:50:34.680Z,11.40
2023-03-26T12:53:43.224Z,11.60
2023-03-26T12:56:24.071Z,11.80
2023-03-26T12:59:06.316Z,11.70
2023-03-26T13:02:18.484Z,11.50
2023-03-26T13:05:04.922Z,11.50
2023-03-26T13:07:50.915Z,11.20
2023-03-26T13:10:31.860Z,11.10
2023-03-26T13:13:29.981Z,10.90
2023-03-26T13:16:41.028Z,10.80
2023-03-26T13:19:16.188Z,10.80
2023-03-26T13:22:30.708Z,11.10
2023-03-26T13:25:34.987Z,11.10
2023-03-26T13:28:23.619Z,11.40
2023-03-26T13:31:05.542Z,11.40
2023-03-26T13:34:07.755Z,11.70
2023-03-26T13:37:14.762Z,11.70
2023-03-26T13:40:24.830Z,11.70
2023-03-26T13:43:01.250Z,11.60
2023-03-26T13:45:39.450Z,11.50
2023-03-26T13:48:18.138Z,11.50
2023-03-26T13:51:02.131Z,11.30
2023-03-26T13:53:40.864Z,11.30
2023-03-26T13:56:15.455Z,11.50
2023-03-26T13:58:52.634Z,11.60
2023-03-26T14:01:54.829Z,11.60
2023-03-26T14:04:34.108Z,11.70
2023-03-26T14:07:47.254Z,11.60
2023-03-26T14:10:22.017Z,11.50
2023-03-26T14:13:00.561Z,11.50
2023-03-26T14:15:47.871Z,11.30
2023-03-26T14:18:30.798Z,11.30
2023-03-26T14:21:13.196Z,11.40
2023-03-26T14:24:12.868Z,11.40
2023-03-26T14:26:43.989Z,11.50
2023-03-26T14:29:56.545Z,11.50
2023-03-26T14:32:55.006Z,11.70
2023-03-26T14:36:08.759Z,11.60
2023-03-26T14:39:32.251Z,11.70
2023-03-26T14:42:13.164Z,11.60
2023-03-26T14:45:21.556Z,11.50
2023-03-26T14:48:09.941Z,11.70
2023-03-26T14:51:17.339Z,11.70
2023-03-26T14:53:49.584Z,11.70
2023-03-26T14:56:41.500Z,11.80
2023-03-26T14:59:57.816Z,11.90
2023-03-26T15:02:43.710Z,11.80
2023-03-26T15:05:55.150Z,11.70
2023-03-26T15:09:14.475Z,11.60
2023-03-26T15:12:24.771Z,11.60
2023-03-26T15:15:30.935Z,11.50
2023-03-26T15:18:36.808Z,11.30
2023-03-26T15:21:34.214Z,11.10
2023-03-26T15:24:34.930Z,11.10
2023-03-26T15:27:30.394Z,10.80
2023-03-26T15:30:25.963Z,10.60
2023-03-26T15:33:39.037Z,10.50
2023-03-26T15:36:30.441Z,10.40
2023-03-26T15:39:09.526Z,10.20
2023-03-26T15:41:51.381Z,10.10
2023-03-26T15:44:47.240Z,9.90
2023-03-26T15:47:32.530Z,9.90
2023-03-26T15:50:59.776Z,9.90
2023-03-26T15:54:03.724Z,9.80
2023-03-26T15:56:54.805Z,9.90
2023-03-26T15:59:59.402Z,9.70
2023-03-26T16:02:53.879Z,9.60
2023-03-26T16:06:06.185Z,9.50
2023-03-26T16:08:46.934Z,9.40
2023-03-26T16:11:15.522Z,9.40
2023-03-26T16:14:23.319Z,9.40
2023-03-26T16:16:59.316Z,9.40
2023-03-26T16:19:49.458Z,9.30
2023-03-26T16:22:56.453Z,9.20
2023-03-26T16:25:30.394Z,9.30
2023-03-26T16:28:26.562Z,9.20
2023-03-26T16:31:37.009Z,9.20
2023-03-26T16:34:09.079Z,9.00
2023-03-26T16:36:45.072Z,8.90
2023-03-26T16:39:46.241Z,8.80
2023-03-26T16:42:16.800Z,8.70
2023-03-26T16:45:27.423Z,8.70
2023-03-26T16:47:57.750Z,8.60
2023-03-26T16:50:46.950Z,8.60
2023-03-26T16:53:47.765Z,8.50
2023-03-26T16:56:21.455Z,8.50
2023-03-26T16:58:56.046Z,8.50
2023-03-26T17:01:36.044Z,8.50
2023-03-26T17:04:12.954Z,8.40
2023-03-26T17:07:01.991Z,8.30
2023-03-26T17:09:59.160Z,8.30
2023-03-26T17:12:58.814Z,8.20
2023-03-26T17:16:19.520Z,8.20
2023-03-26T17:19:24.610Z,8.20
2023-03-26T17:21:56.676Z,8.10
2023-03-26T17:24:39.110Z,8.10
2023-03-26T17:27:21.657Z,8.10
2023-03-26T17:29:59.413Z,8.10
2023-03-26T17:33:00.027Z,8.00
2023-03-26T17:35:43.464Z,8.00
2023-03-26T17:38:25.890Z,7.90
2023-03-26T17:40:55.057Z,7.90
2023-03-26T17:43:50.225Z,8.00
2023-03-26T17:46:45.492Z,7.90
2023-03-26T17:49:40.639Z,7.90
2023-03-26T17:52:34.188Z,7.80
2023-03-26T17:55:02.330Z,7.80
2023-03-26T17:57:42.041Z,7.70
2023-03-26T18:00:18.625Z,7.70
2023-03-26T18:03:17.034Z,7.70
2023-03-26T18:05:44.356Z,7.60
2023-03-26T18:08:48.610Z,7.60
2023-03-26T18:11:51.128Z,7.40
2023-03-26T18:14:21.022Z,7.20
2023-03-26T18:16:57.680Z,7.10
2023-03-26T18:19:25.963Z,6.90
2023-03-26T18:22:06.178Z,6.90
2023-03-26T18:24:39.213Z,6.90
2023-03-26T18:27:12.485Z,6.90
2023-03-26T18:29:46.233Z,6.90
2023-03-26T18:32:13.404Z,6.70
2023-03-26T18:34:52.687Z,6.70
2023-03-26T18:37:29.237Z,6.60
2023-03-26T18:40:25.322Z,6.60
2023-03-26T18:42:58.466Z,6.50
2023-03-26T18:45:33.701Z,6.50
2023-03-26T18:48:10.766Z,6.50
2023-03-26T18:50:42.561Z,6.50
2023-03-26T18:53:23.759Z,6.70
2023-03-26T18:55:52.587Z,6.70
2023-03-26T18:58:38.341Z,6.70
2023-03-26T19:01:20.232Z,6.70
2023-03-26T19:03:53.888Z,6.80
2023-03-26T19:06:21.449Z,6.80
2023-03-26T19:08:49.624Z,6.80
2023-03-26T19:11:18.403Z,6.80
2023-03-26T19:13:59.669Z,6.80
2023-03-26T19:16:33.881Z,6.80
2023-03-26T19:19:06.988Z,6.80
2023-03-26T19:21:36.325Z,6.90
2023-03-26T19:24:04.948Z,6.90
2023-03-26T19:26:33.453Z,6.80
2023-03-26T19:29:00.986Z,6.80
2023-03-26T19:31:38.236Z,6.90
2023-03-26T19:34:15.102Z,6.90
2023-03-26T19:36:58.366Z,6.80
2023-03-26T19:39:39.102Z,6.80
2023-03-26T19:42:07.859Z,6.80
2023-03-26T19:44:39.787Z,6.70
2023-03-26T19:47:18.988Z,6.70
2023-03-26T19:50:33.943Z,6.70
2023-03-26T19:53:37.441Z,6.70
2023-03-26T19:56:13.429Z,6.60
2023-03-26T19:58:41.825Z,6.50
2023-03-26T20:01:30.291Z,6.50
2023-03-26T20:04:04.139Z,6.50
2023-03-26T20:06:43.081Z,6.60
2023-03-26T20:09:13.503Z,6.50
2023-03-26T20:11:41.328Z,6.50
2023-03-26T20:14:26.080Z,6.50
2023-03-26T20:16:53.929Z,6.40
2023-03-26T20:19:21.131Z,6.40
2023-03-26T20:21:49.058Z,6.40
2023-03-26T20:24:17.945Z,6.40
2023-03-26T20:26:46.750Z,6.40
2023-03-26T20:29:15.203Z,6.40
2023-03-26T20:31:43.297Z,6.30
2023-03-26T20:34:19.173Z,6.30
2023-03-26T20:36:47.247Z,6.30
2023-03-26T20:39:14.467Z,6.30
2023-03-26T20:41:47.782Z,6.30
2023-03-26T20:44:21.208Z,6.30
2023-03-26T20:46:49.828Z,6.20
2023-03-26T20:49:18.194Z,6.20
2023-03-26T20:51:46.817Z,6.20
2023-03-26T20:54:24.089Z,6.20
2023-03-26T20:56:53.565Z,6.20
2023-03-26T20:59:26.864Z,6.20
2023-03-26T21:01:56.705Z,6.20
2023-03-26T21:04:25.002Z,6.20
2023-03-26T21:06:55.675Z,6.10
2023-03-26T21:09:35.565Z,6.10
2023-03-26T21:12:21.928Z,6.10
2023-03-26T21:14:49.347Z,6.10
2023-03-26T21:17:20.729Z,6.10
2023-03-26T21:19:49.285Z,6.20
2023-03-26T21:22:41.296Z,6.10
2023-03-26T21:25:20.877Z,6.10
2023-03-26T21:27:56.992Z,6.10
2023-03-26T21:30:24.518Z,6.10
2023-03-26T21:32:52.334Z,6.00
2023-03-26T21:35:20.122Z,6.00
2023-03-26T21:37:48.881Z,6.10
2023-03-26T21:40:18.663Z,6.00
2023-03-26T21:42:54.380Z,6.00
2023-03-26T21:45:22.581Z,6.00
2023-03-26T21:47:50.894Z,6.00
2023-03-26T21:50:22.278Z,6.00
2023-03-26T21:52:51.558Z,6.00
2023-03-26T21:55:21.082Z,6.10
2023-03-26T21:58:26.696Z,6.00
2023-03-26T22:01:26.413Z,6.00
2023-03-26T22:04:21.858Z,6.00
2023-03-26T22:07:04.906Z,6.00
2023-03-26T22:09:36.447Z,5.90
2023-03-26T22:12:06.915Z,6.00
2023-03-26T22:14:34.545Z,6.00
2023-03-26T22:17:01.813Z,6.00
2023-03-26T22:19:30.471Z,5.90
2023-03-26T22:22:01.015Z,5.80
2023-03-26T22:24:28.574Z,5.80
2023-03-26T22:26:56.121Z,5.80
2023-03-26T22:29:24.484Z,5.80
2023-03-26T22:31:51.636Z,5.80
2023-03-26T22:34:19.818Z,5.80
2023-03-26T22:36:47.367Z,5.70
2023-03-26T22:39:14.386Z,5.70
2023-03-26T22:41:41.638Z,5.70
2023-03-26T22:44:19.750Z,5.70
2023-03-26T22:46:51.449Z,5.60
2023-03-26T22:49:19.249Z,5.60
2023-03-26T22:51:46.806Z,5.60
2023-03-26T22:54:14.648Z,5.50
2023-03-26T22:56:41.832Z,5.60
2023-03-26T22:59:09.328Z,5.50
2023-03-26T23:01:36.755Z,5.40
2023-03-26T23:04:03.990Z,5.40
2023-03-26T23:06:31.714Z,5.30
2023-03-26T23:08:58.967Z,5.30
2023-03-26T23:11:26.716Z,5.30
2023-03-26T23:13:53.743Z,5.20
2023-03-26T23:16:21.700Z,5.20
2023-03-26T23:18:49.023Z,5.20
2023-03-26T23:21:20.583Z,5.10
2023-03-26T23:23:49.683Z,5.10
2023-03-26T23:26:16.842Z,5.10
2023-03-26T23:28:44.060Z,5.10
2023-03-26T23:31:12.919Z,5.10
2023-03-26T23:33:48.106Z,5.10
2023-03-26T23:36:18.611Z,5.00
2023-03-26T23:38:48.526Z,4.90
2023-03-26T23:41:19.391Z,4.90
2023-03-26T23:43:54.661Z,4.80
2023-03-26T23:46:30.610Z,4.70
2023-03-26T23:49:04.709Z,4.70
2023-03-26T23:51:33.274Z,4.60
2023-03-26T23:54:01.564Z,4.60
2023-03-26T23:56:30.038Z,4.50
2023-03-26T23:58:59.966Z,4.50
